sensor_id;sensor_type;location;lat;lon;timestamp;P1;durP1;ratioP1;P2;durP2;ratioP2
11747;SDS011;5931;48.832;9.072;2024-01-10T00:01:35;17.67;;;7.67;;
11747;SDS011;5931;48.832;9.072;2024-01-10T00:04:01;17.80;;;10.80;;
11747;SDS011;5931;48.832;9.072;2024-01-10T00:06:27;19.02;;;8.07;;
11747;SDS011;5931;48.832;9.072;2024-01-10T00:08:53;29.97;;;10.63;;
11747;SDS011;5931;48.832;9.072;2024-01-10T00:11:19;19.43;;;7.73;;
11747;SDS011;5931;48.832;9.072;2024-01-10T00:13:45;14.03;;;7.13;;
11747;SDS011;5931;48.832;9.072;2024-01-10T00:16:14;11.07;;;6.50;;
11747;SDS011;5931;48.832;9.072;2024-01-10T00:18:40;18.15;;;7.85;;
11747;SDS011;5931;48.832;9.072;2024-01-10T00:21:06;18.90;;;8.47;;
11747;SDS011;5931;48.832;9.072;2024-01-10T00:23:32;14.02;;;7.72;;
11747;SDS011;5931;48.832;9.072;2024-01-10T00:25:58;16.03;;;7.80;;
11747;SDS011;5931;48.832;9.072;2024-01-10T00:28:24;16.87;;;8.27;;
11747;SDS011;5931;48.832;9.072;2024-01-10T00:30:50;14.93;;;8.10;;
11747;SDS011;5931;48.832;9.072;2024-01-10T00:33:16;16.20;;;7.00;;
11747;SDS011;5931;48.832;9.072;2024-01-10T00:35:42;16.30;;;7.03;;
11747;SDS011;5931;48.832;9.072;2024-01-10T00:38:08;14.73;;;9.00;;
11747;SDS011;5931;48.832;9.072;2024-01-10T00:40:34;14.40;;;6.85;;
11747;SDS011;5931;48.832;9.072;2024-01-10T00:43:00;15.43;;;8.50;;
11747;SDS011;5931;48.832;9.072;2024-01-10T00:45:26;14.52;;;7.07;;
11747;SDS011;5931;48.832;9.072;2024-01-10T00:47:52;17.73;;;8.43;;
11747;SDS011;5931;48.832;9.072;2024-01-10T00:50:18;12.17;;;7.90;;
11747;SDS011;5931;48.832;9.072;2024-01-10T00:52:44;16.23;;;7.17;;
11747;SDS011;5931;48.832;9.072;2024-01-10T00:55:10;16.98;;;7.72;;
11747;SDS011;5931;48.832;9.072;2024-01-10T00:57:36;14.00;;;6.97;;
11747;SDS011;5931;48.832;9.072;2024-01-10T01:00:06;18.48;;;7.60;;
11747;SDS011;5931;48.832;9.072;2024-01-10T01:02:33;19.48;;;9.52;;
11747;SDS011;5931;48.832;9.072;2024-01-10T01:04:58;15.30;;;8.00;;
11747;SDS011;5931;48.832;9.072;2024-01-10T01:07:24;13.90;;;7.53;;
11747;SDS011;5931;48.832;9.072;2024-01-10T01:09:51;15.07;;;7.35;;
11747;SDS011;5931;48.832;9.072;2024-01-10T01:12:16;14.87;;;7.10;;
11747;SDS011;5931;48.832;9.072;2024-01-10T01:14:42;12.00;;;7.50;;
11747;SDS011;5931;48.832;9.072;2024-01-10T01:17:08;17.57;;;7.53;;
11747;SDS011;5931;48.832;9.072;2024-01-10T01:19:34;14.10;;;6.87;;
11747;SDS011;5931;48.832;9.072;2024-01-10T01:22:00;17.43;;;7.77;;
11747;SDS011;5931;48.832;9.072;2024-01-10T01:24:26;18.10;;;8.30;;
11747;SDS011;5931;48.832;9.072;2024-01-10T01:26:51;14.47;;;7.60;;
11747;SDS011;5931;48.832;9.072;2024-01-10T01:29:17;12.43;;;7.23;;
11747;SDS011;5931;48.832;9.072;2024-01-10T01:31:44;15.70;;;7.32;;
11747;SDS011;5931;48.832;9.072;2024-01-10T01:34:10;17.50;;;8.27;;
11747;SDS011;5931;48.832;9.072;2024-01-10T01:36:35;15.70;;;7.47;;
11747;SDS011;5931;48.832;9.072;2024-01-10T01:39:01;12.60;;;6.60;;
11747;SDS011;5931;48.832;9.072;2024-01-10T01:41:27;12.63;;;7.60;;
11747;SDS011;5931;48.832;9.072;2024-01-10T01:43:53;17.10;;;7.60;;
11747;SDS011;5931;48.832;9.072;2024-01-10T01:46:18;16.57;;;8.20;;
11747;SDS011;5931;48.832;9.072;2024-01-10T01:48:44;19.20;;;9.93;;
11747;SDS011;5931;48.832;9.072;2024-01-10T01:51:12;11.63;;;6.28;;
11747;SDS011;5931;48.832;9.072;2024-01-10T01:53:39;18.95;;;8.88;;
11747;SDS011;5931;48.832;9.072;2024-01-10T01:56:07;11.45;;;7.88;;
11747;SDS011;5931;48.832;9.072;2024-01-10T01:58:33;19.75;;;8.52;;
11747;SDS011;5931;48.832;9.072;2024-01-10T02:01:01;16.73;;;8.02;;
11747;SDS011;5931;48.832;9.072;2024-01-10T02:03:28;16.88;;;6.38;;
11747;SDS011;5931;48.832;9.072;2024-01-10T02:05:55;15.05;;;7.55;;
11747;SDS011;5931;48.832;9.072;2024-01-10T02:08:22;17.20;;;7.35;;
11747;SDS011;5931;48.832;9.072;2024-01-10T02:10:48;17.30;;;6.63;;
11747;SDS011;5931;48.832;9.072;2024-01-10T02:13:14;12.40;;;7.93;;
11747;SDS011;5931;48.832;9.072;2024-01-10T02:15:40;15.23;;;7.75;;
11747;SDS011;5931;48.832;9.072;2024-01-10T02:18:06;17.35;;;7.53;;
11747;SDS011;5931;48.832;9.072;2024-01-10T02:20:32;11.33;;;5.97;;
11747;SDS011;5931;48.832;9.072;2024-01-10T02:22:58;16.30;;;8.60;;
11747;SDS011;5931;48.832;9.072;2024-01-10T02:25:24;12.07;;;6.70;;
11747;SDS011;5931;48.832;9.072;2024-01-10T02:27:50;14.57;;;7.87;;
11747;SDS011;5931;48.832;9.072;2024-01-10T02:30:15;16.10;;;6.93;;
11747;SDS011;5931;48.832;9.072;2024-01-10T02:32:41;12.40;;;6.77;;
11747;SDS011;5931;48.832;9.072;2024-01-10T02:35:07;13.73;;;7.20;;
11747;SDS011;5931;48.832;9.072;2024-01-10T02:37:33;13.37;;;7.10;;
11747;SDS011;5931;48.832;9.072;2024-01-10T02:39:59;19.50;;;7.40;;
11747;SDS011;5931;48.832;9.072;2024-01-10T02:42:26;19.83;;;8.00;;
11747;SDS011;5931;48.832;9.072;2024-01-10T02:44:53;13.43;;;6.72;;
11747;SDS011;5931;48.832;9.072;2024-01-10T02:47:19;15.00;;;7.97;;
11747;SDS011;5931;48.832;9.072;2024-01-10T02:49:44;16.00;;;7.13;;
11747;SDS011;5931;48.832;9.072;2024-01-10T02:52:10;12.53;;;7.23;;
11747;SDS011;5931;48.832;9.072;2024-01-10T02:54:36;14.40;;;5.23;;
11747;SDS011;5931;48.832;9.072;2024-01-10T02:57:02;13.77;;;5.53;;
11747;SDS011;5931;48.832;9.072;2024-01-10T02:59:27;20.17;;;7.77;;
11747;SDS011;5931;48.832;9.072;2024-01-10T03:01:53;12.67;;;6.50;;
11747;SDS011;5931;48.832;9.072;2024-01-10T03:04:19;16.38;;;6.80;;
11747;SDS011;5931;48.832;9.072;2024-01-10T03:06:45;11.33;;;6.30;;
11747;SDS011;5931;48.832;9.072;2024-01-10T03:09:11;15.43;;;5.30;;
11747;SDS011;5931;48.832;9.072;2024-01-10T03:11:37;8.38;;;5.50;;
11747;SDS011;5931;48.832;9.072;2024-01-10T03:14:09;7.53;;;5.33;;
11747;SDS011;5931;48.832;9.072;2024-01-10T03:16:36;11.73;;;6.32;;
11747;SDS011;5931;48.832;9.072;2024-01-10T03:19:02;11.05;;;6.53;;
11747;SDS011;5931;48.832;9.072;2024-01-10T03:21:28;15.73;;;6.40;;
11747;SDS011;5931;48.832;9.072;2024-01-10T03:23:57;8.07;;;5.63;;
11747;SDS011;5931;48.832;9.072;2024-01-10T03:26:24;12.77;;;7.00;;
11747;SDS011;5931;48.832;9.072;2024-01-10T03:28:51;18.20;;;7.18;;
11747;SDS011;5931;48.832;9.072;2024-01-10T03:31:17;12.05;;;5.45;;
11747;SDS011;5931;48.832;9.072;2024-01-10T03:33:43;10.95;;;5.45;;
11747;SDS011;5931;48.832;9.072;2024-01-10T03:36:11;12.30;;;5.87;;
11747;SDS011;5931;48.832;9.072;2024-01-10T03:38:38;12.35;;;6.63;;
11747;SDS011;5931;48.832;9.072;2024-01-10T03:41:04;10.37;;;5.33;;
11747;SDS011;5931;48.832;9.072;2024-01-10T03:43:30;12.03;;;6.20;;
11747;SDS011;5931;48.832;9.072;2024-01-10T03:45:56;11.63;;;6.07;;
11747;SDS011;5931;48.832;9.072;2024-01-10T03:48:22;18.00;;;7.60;;
11747;SDS011;5931;48.832;9.072;2024-01-10T03:50:49;11.60;;;5.88;;
11747;SDS011;5931;48.832;9.072;2024-01-10T03:53:15;17.77;;;6.55;;
11747;SDS011;5931;48.832;9.072;2024-01-10T03:55:41;13.45;;;6.72;;
11747;SDS011;5931;48.832;9.072;2024-01-10T03:58:06;15.33;;;5.20;;
11747;SDS011;5931;48.832;9.072;2024-01-10T04:00:32;10.97;;;5.80;;
11747;SDS011;5931;48.832;9.072;2024-01-10T04:02:58;11.77;;;5.30;;
11747;SDS011;5931;48.832;9.072;2024-01-10T04:05:24;11.02;;;5.80;;
11747;SDS011;5931;48.832;9.072;2024-01-10T04:07:51;11.20;;;5.87;;
11747;SDS011;5931;48.832;9.072;2024-01-10T04:10:17;8.45;;;5.22;;
11747;SDS011;5931;48.832;9.072;2024-01-10T04:12:43;19.05;;;6.88;;
11747;SDS011;5931;48.832;9.072;2024-01-10T04:15:10;11.93;;;6.35;;
11747;SDS011;5931;48.832;9.072;2024-01-10T04:17:36;11.93;;;6.22;;
11747;SDS011;5931;48.832;9.072;2024-01-10T04:20:02;13.93;;;5.53;;
11747;SDS011;5931;48.832;9.072;2024-01-10T04:22:28;12.48;;;6.63;;
11747;SDS011;5931;48.832;9.072;2024-01-10T04:24:58;12.30;;;6.40;;
11747;SDS011;5931;48.832;9.072;2024-01-10T04:27:24;11.45;;;6.35;;
11747;SDS011;5931;48.832;9.072;2024-01-10T04:29:50;10.48;;;5.50;;
11747;SDS011;5931;48.832;9.072;2024-01-10T04:32:16;14.67;;;6.17;;
11747;SDS011;5931;48.832;9.072;2024-01-10T04:34:42;13.87;;;6.60;;
11747;SDS011;5931;48.832;9.072;2024-01-10T04:37:08;13.70;;;6.00;;
11747;SDS011;5931;48.832;9.072;2024-01-10T04:39:34;17.10;;;5.47;;
11747;SDS011;5931;48.832;9.072;2024-01-10T04:42:00;13.32;;;5.80;;
11747;SDS011;5931;48.832;9.072;2024-01-10T04:44:27;13.93;;;6.03;;
11747;SDS011;5931;48.832;9.072;2024-01-10T04:46:53;9.97;;;5.83;;
11747;SDS011;5931;48.832;9.072;2024-01-10T04:49:19;17.35;;;7.43;;
11747;SDS011;5931;48.832;9.072;2024-01-10T04:51:45;11.13;;;6.00;;
11747;SDS011;5931;48.832;9.072;2024-01-10T04:54:11;9.80;;;5.32;;
11747;SDS011;5931;48.832;9.072;2024-01-10T04:56:37;18.13;;;5.73;;
11747;SDS011;5931;48.832;9.072;2024-01-10T04:59:03;13.30;;;6.97;;
11747;SDS011;5931;48.832;9.072;2024-01-10T05:01:29;8.32;;;5.47;;
11747;SDS011;5931;48.832;9.072;2024-01-10T05:03:55;12.80;;;6.72;;
11747;SDS011;5931;48.832;9.072;2024-01-10T05:06:21;11.40;;;6.23;;
11747;SDS011;5931;48.832;9.072;2024-01-10T05:08:47;9.30;;;4.20;;
11747;SDS011;5931;48.832;9.072;2024-01-10T05:11:12;10.37;;;5.20;;
11747;SDS011;5931;48.832;9.072;2024-01-10T05:13:40;11.18;;;6.05;;
11747;SDS011;5931;48.832;9.072;2024-01-10T05:16:06;15.27;;;6.73;;
11747;SDS011;5931;48.832;9.072;2024-01-10T05:18:31;14.27;;;7.00;;
11747;SDS011;5931;48.832;9.072;2024-01-10T05:20:58;14.77;;;6.07;;
11747;SDS011;5931;48.832;9.072;2024-01-10T05:23:24;11.02;;;5.88;;
11747;SDS011;5931;48.832;9.072;2024-01-10T05:25:50;12.67;;;5.80;;
11747;SDS011;5931;48.832;9.072;2024-01-10T05:28:16;11.20;;;6.20;;
11747;SDS011;5931;48.832;9.072;2024-01-10T05:30:41;17.90;;;6.60;;
11747;SDS011;5931;48.832;9.072;2024-01-10T05:33:08;13.82;;;7.05;;
11747;SDS011;5931;48.832;9.072;2024-01-10T05:35:34;11.57;;;5.18;;
11747;SDS011;5931;48.832;9.072;2024-01-10T05:38:01;15.55;;;6.57;;
11747;SDS011;5931;48.832;9.072;2024-01-10T05:40:30;11.90;;;5.60;;
11747;SDS011;5931;48.832;9.072;2024-01-10T05:42:57;11.25;;;6.43;;
11747;SDS011;5931;48.832;9.072;2024-01-10T05:45:24;18.35;;;6.30;;
11747;SDS011;5931;48.832;9.072;2024-01-10T05:47:51;11.75;;;6.95;;
11747;SDS011;5931;48.832;9.072;2024-01-10T05:50:17;11.30;;;4.97;;
11747;SDS011;5931;48.832;9.072;2024-01-10T05:52:43;12.67;;;6.90;;
11747;SDS011;5931;48.832;9.072;2024-01-10T05:55:09;13.30;;;6.70;;
11747;SDS011;5931;48.832;9.072;2024-01-10T05:57:35;18.35;;;7.10;;
11747;SDS011;5931;48.832;9.072;2024-01-10T06:00:02;13.45;;;5.50;;
11747;SDS011;5931;48.832;9.072;2024-01-10T06:02:30;16.63;;;6.25;;
11747;SDS011;5931;48.832;9.072;2024-01-10T06:04:56;13.80;;;7.60;;
11747;SDS011;5931;48.832;9.072;2024-01-10T06:07:22;18.77;;;7.37;;
11747;SDS011;5931;48.832;9.072;2024-01-10T06:09:47;10.87;;;5.37;;
11747;SDS011;5931;48.832;9.072;2024-01-10T06:12:13;10.43;;;5.10;;
11747;SDS011;5931;48.832;9.072;2024-01-10T06:14:39;12.23;;;6.13;;
11747;SDS011;5931;48.832;9.072;2024-01-10T06:17:06;9.07;;;5.90;;
11747;SDS011;5931;48.832;9.072;2024-01-10T06:19:32;14.43;;;7.43;;
11747;SDS011;5931;48.832;9.072;2024-01-10T06:21:58;19.60;;;8.98;;
11747;SDS011;5931;48.832;9.072;2024-01-10T06:24:24;21.58;;;8.25;;
11747;SDS011;5931;48.832;9.072;2024-01-10T06:26:51;22.05;;;7.13;;
11747;SDS011;5931;48.832;9.072;2024-01-10T06:29:17;16.10;;;7.80;;
11747;SDS011;5931;48.832;9.072;2024-01-10T06:31:44;16.33;;;8.40;;
11747;SDS011;5931;48.832;9.072;2024-01-10T06:34:09;20.27;;;8.17;;
11747;SDS011;5931;48.832;9.072;2024-01-10T06:36:35;17.05;;;8.13;;
11747;SDS011;5931;48.832;9.072;2024-01-10T06:39:02;13.03;;;7.20;;
11747;SDS011;5931;48.832;9.072;2024-01-10T06:41:28;11.75;;;7.40;;
11747;SDS011;5931;48.832;9.072;2024-01-10T06:43:54;12.23;;;5.63;;
11747;SDS011;5931;48.832;9.072;2024-01-10T06:46:20;14.80;;;8.00;;
11747;SDS011;5931;48.832;9.072;2024-01-10T06:48:46;16.65;;;7.43;;
11747;SDS011;5931;48.832;9.072;2024-01-10T06:51:13;18.83;;;8.23;;
11747;SDS011;5931;48.832;9.072;2024-01-10T06:53:39;11.57;;;6.60;;
11747;SDS011;5931;48.832;9.072;2024-01-10T06:56:05;19.98;;;7.57;;
11747;SDS011;5931;48.832;9.072;2024-01-10T06:58:32;14.30;;;6.47;;
11747;SDS011;5931;48.832;9.072;2024-01-10T07:00:58;13.05;;;6.38;;
11747;SDS011;5931;48.832;9.072;2024-01-10T07:03:25;11.23;;;7.40;;
11747;SDS011;5931;48.832;9.072;2024-01-10T07:05:51;13.68;;;7.20;;
11747;SDS011;5931;48.832;9.072;2024-01-10T07:08:17;17.03;;;7.43;;
11747;SDS011;5931;48.832;9.072;2024-01-10T07:10:43;19.60;;;8.80;;
11747;SDS011;5931;48.832;9.072;2024-01-10T07:13:09;19.43;;;7.70;;
11747;SDS011;5931;48.832;9.072;2024-01-10T07:15:36;13.27;;;6.70;;
11747;SDS011;5931;48.832;9.072;2024-01-10T07:18:03;14.05;;;7.40;;
11747;SDS011;5931;48.832;9.072;2024-01-10T07:20:30;17.85;;;7.70;;
11747;SDS011;5931;48.832;9.072;2024-01-10T07:22:55;34.40;;;7.90;;
11747;SDS011;5931;48.832;9.072;2024-01-10T07:25:21;16.80;;;6.90;;
11747;SDS011;5931;48.832;9.072;2024-01-10T07:27:50;16.35;;;8.88;;
11747;SDS011;5931;48.832;9.072;2024-01-10T07:30:17;14.23;;;6.72;;
11747;SDS011;5931;48.832;9.072;2024-01-10T07:32:43;53.87;;;24.07;;
11747;SDS011;5931;48.832;9.072;2024-01-10T07:35:10;82.82;;;33.30;;
11747;SDS011;5931;48.832;9.072;2024-01-10T07:37:37;47.90;;;20.70;;
11747;SDS011;5931;48.832;9.072;2024-01-10T07:40:04;19.95;;;10.00;;
11747;SDS011;5931;48.832;9.072;2024-01-10T07:42:34;13.07;;;7.10;;
11747;SDS011;5931;48.832;9.072;2024-01-10T07:45:00;18.45;;;7.32;;
11747;SDS011;5931;48.832;9.072;2024-01-10T07:47:30;26.65;;;12.15;;
11747;SDS011;5931;48.832;9.072;2024-01-10T07:50:06;71.75;;;33.47;;
11747;SDS011;5931;48.832;9.072;2024-01-10T07:52:32;41.30;;;17.17;;
11747;SDS011;5931;48.832;9.072;2024-01-10T07:54:59;21.95;;;11.45;;
11747;SDS011;5931;48.832;9.072;2024-01-10T07:57:26;36.75;;;18.50;;
11747;SDS011;5931;48.832;9.072;2024-01-10T07:59:52;16.88;;;10.32;;
11747;SDS011;5931;48.832;9.072;2024-01-10T08:02:18;20.20;;;8.18;;
11747;SDS011;5931;48.832;9.072;2024-01-10T08:04:44;21.83;;;11.97;;
11747;SDS011;5931;48.832;9.072;2024-01-10T08:07:10;25.97;;;11.67;;
11747;SDS011;5931;48.832;9.072;2024-01-10T08:09:36;23.45;;;10.57;;
11747;SDS011;5931;48.832;9.072;2024-01-10T08:12:02;25.60;;;9.97;;
11747;SDS011;5931;48.832;9.072;2024-01-10T08:14:28;29.08;;;12.48;;
11747;SDS011;5931;48.832;9.072;2024-01-10T08:16:54;21.57;;;11.07;;
11747;SDS011;5931;48.832;9.072;2024-01-10T08:19:26;21.90;;;10.05;;
11747;SDS011;5931;48.832;9.072;2024-01-10T08:21:53;13.50;;;6.70;;
11747;SDS011;5931;48.832;9.072;2024-01-10T08:24:19;16.17;;;7.32;;
11747;SDS011;5931;48.832;9.072;2024-01-10T08:26:48;12.45;;;6.75;;
11747;SDS011;5931;48.832;9.072;2024-01-10T08:29:17;18.13;;;7.60;;
11747;SDS011;5931;48.832;9.072;2024-01-10T08:31:44;18.92;;;9.25;;
11747;SDS011;5931;48.832;9.072;2024-01-10T08:34:10;17.65;;;9.23;;
11747;SDS011;5931;48.832;9.072;2024-01-10T08:36:36;17.27;;;8.85;;
11747;SDS011;5931;48.832;9.072;2024-01-10T08:39:03;15.82;;;8.68;;
11747;SDS011;5931;48.832;9.072;2024-01-10T08:41:30;26.02;;;9.80;;
11747;SDS011;5931;48.832;9.072;2024-01-10T08:43:56;23.65;;;9.80;;
11747;SDS011;5931;48.832;9.072;2024-01-10T08:46:22;18.05;;;8.82;;
11747;SDS011;5931;48.832;9.072;2024-01-10T08:48:50;15.65;;;7.18;;
11747;SDS011;5931;48.832;9.072;2024-01-10T08:51:16;16.60;;;8.52;;
11747;SDS011;5931;48.832;9.072;2024-01-10T08:53:42;17.08;;;9.05;;
11747;SDS011;5931;48.832;9.072;2024-01-10T08:56:10;19.85;;;9.23;;
11747;SDS011;5931;48.832;9.072;2024-01-10T08:58:36;17.70;;;8.67;;
11747;SDS011;5931;48.832;9.072;2024-01-10T09:01:03;17.27;;;7.57;;
11747;SDS011;5931;48.832;9.072;2024-01-10T09:03:29;20.92;;;9.38;;
11747;SDS011;5931;48.832;9.072;2024-01-10T09:05:55;19.63;;;9.93;;
11747;SDS011;5931;48.832;9.072;2024-01-10T09:08:22;15.00;;;9.10;;
11747;SDS011;5931;48.832;9.072;2024-01-10T09:10:47;29.83;;;10.43;;
11747;SDS011;5931;48.832;9.072;2024-01-10T09:13:14;28.13;;;10.02;;
11747;SDS011;5931;48.832;9.072;2024-01-10T09:15:40;24.10;;;9.63;;
11747;SDS011;5931;48.832;9.072;2024-01-10T09:18:06;17.88;;;9.35;;
11747;SDS011;5931;48.832;9.072;2024-01-10T09:20:32;16.40;;;9.20;;
11747;SDS011;5931;48.832;9.072;2024-01-10T09:22:58;21.50;;;9.80;;
11747;SDS011;5931;48.832;9.072;2024-01-10T09:25:25;18.90;;;9.68;;
11747;SDS011;5931;48.832;9.072;2024-01-10T09:27:51;22.13;;;10.10;;
11747;SDS011;5931;48.832;9.072;2024-01-10T09:30:17;16.93;;;9.73;;
11747;SDS011;5931;48.832;9.072;2024-01-10T09:32:44;15.18;;;8.75;;
11747;SDS011;5931;48.832;9.072;2024-01-10T09:35:10;19.40;;;9.38;;
11747;SDS011;5931;48.832;9.072;2024-01-10T09:37:37;17.05;;;8.65;;
11747;SDS011;5931;48.832;9.072;2024-01-10T09:40:03;20.67;;;9.03;;
11747;SDS011;5931;48.832;9.072;2024-01-10T09:42:32;21.10;;;10.68;;
11747;SDS011;5931;48.832;9.072;2024-01-10T09:45:00;17.08;;;8.90;;
11747;SDS011;5931;48.832;9.072;2024-01-10T09:47:28;21.40;;;10.52;;
11747;SDS011;5931;48.832;9.072;2024-01-10T09:49:56;23.45;;;9.63;;
11747;SDS011;5931;48.832;9.072;2024-01-10T09:52:24;21.60;;;8.63;;
11747;SDS011;5931;48.832;9.072;2024-01-10T09:54:54;17.65;;;9.27;;
11747;SDS011;5931;48.832;9.072;2024-01-10T09:57:24;25.85;;;11.07;;
11747;SDS011;5931;48.832;9.072;2024-01-10T09:59:51;22.65;;;10.90;;
11747;SDS011;5931;48.832;9.072;2024-01-10T10:02:17;27.75;;;11.10;;
11747;SDS011;5931;48.832;9.072;2024-01-10T10:07:46;25.02;;;11.50;;
11747;SDS011;5931;48.832;9.072;2024-01-10T10:10:13;24.73;;;10.70;;
11747;SDS011;5931;48.832;9.072;2024-01-10T10:15:16;18.13;;;10.23;;
11747;SDS011;5931;48.832;9.072;2024-01-10T10:17:44;18.25;;;10.20;;
11747;SDS011;5931;48.832;9.072;2024-01-10T10:20:19;21.35;;;11.23;;
11747;SDS011;5931;48.832;9.072;2024-01-10T10:25:44;21.30;;;10.70;;
11747;SDS011;5931;48.832;9.072;2024-01-10T10:28:12;22.23;;;10.18;;
11747;SDS011;5931;48.832;9.072;2024-01-10T10:30:38;27.97;;;11.00;;
11747;SDS011;5931;48.832;9.072;2024-01-10T10:33:04;24.17;;;10.47;;
11747;SDS011;5931;48.832;9.072;2024-01-10T10:35:33;24.27;;;11.85;;
11747;SDS011;5931;48.832;9.072;2024-01-10T10:37:59;27.57;;;13.30;;
11747;SDS011;5931;48.832;9.072;2024-01-10T10:40:25;27.27;;;14.03;;
11747;SDS011;5931;48.832;9.072;2024-01-10T10:42:54;25.77;;;12.00;;
11747;SDS011;5931;48.832;9.072;2024-01-10T10:45:22;22.70;;;10.50;;
11747;SDS011;5931;48.832;9.072;2024-01-10T10:47:58;24.77;;;11.80;;
11747;SDS011;5931;48.832;9.072;2024-01-10T10:50:26;29.33;;;12.18;;
11747;SDS011;5931;48.832;9.072;2024-01-10T10:52:55;20.88;;;12.20;;
11747;SDS011;5931;48.832;9.072;2024-01-10T10:55:23;25.92;;;10.70;;
11747;SDS011;5931;48.832;9.072;2024-01-10T10:57:51;24.08;;;11.13;;
11747;SDS011;5931;48.832;9.072;2024-01-10T11:00:19;26.25;;;11.68;;
11747;SDS011;5931;48.832;9.072;2024-01-10T11:02:47;22.17;;;12.27;;
11747;SDS011;5931;48.832;9.072;2024-01-10T11:05:13;17.77;;;11.35;;
11747;SDS011;5931;48.832;9.072;2024-01-10T11:07:39;27.83;;;14.27;;
11747;SDS011;5931;48.832;9.072;2024-01-10T11:10:08;23.20;;;12.60;;
11747;SDS011;5931;48.832;9.072;2024-01-10T11:15:34;31.85;;;11.23;;
11747;SDS011;5931;48.832;9.072;2024-01-10T11:23:58;24.65;;;12.18;;
11747;SDS011;5931;48.832;9.072;2024-01-10T11:26:26;20.90;;;10.30;;
11747;SDS011;5931;48.832;9.072;2024-01-10T11:28:52;23.40;;;12.00;;
11747;SDS011;5931;48.832;9.072;2024-01-10T11:31:30;26.23;;;13.25;;
11747;SDS011;5931;48.832;9.072;2024-01-10T11:33:57;24.92;;;11.38;;
11747;SDS011;5931;48.832;9.072;2024-01-10T11:36:25;23.33;;;11.68;;
11747;SDS011;5931;48.832;9.072;2024-01-10T11:41:28;24.65;;;12.00;;
11747;SDS011;5931;48.832;9.072;2024-01-10T11:46:39;29.20;;;12.50;;
11747;SDS011;5931;48.832;9.072;2024-01-10T11:49:09;38.00;;;13.75;;
11747;SDS011;5931;48.832;9.072;2024-01-10T11:51:37;29.42;;;13.63;;
11747;SDS011;5931;48.832;9.072;2024-01-10T11:54:03;26.70;;;12.75;;
11747;SDS011;5931;48.832;9.072;2024-01-10T11:56:39;25.73;;;12.93;;
11747;SDS011;5931;48.832;9.072;2024-01-10T12:01:35;29.70;;;14.05;;
11747;SDS011;5931;48.832;9.072;2024-01-10T12:04:02;27.25;;;12.70;;
11747;SDS011;5931;48.832;9.072;2024-01-10T12:06:29;23.27;;;12.30;;
11747;SDS011;5931;48.832;9.072;2024-01-10T12:08:56;22.90;;;11.88;;
11747;SDS011;5931;48.832;9.072;2024-01-10T12:11:22;27.33;;;13.73;;
11747;SDS011;5931;48.832;9.072;2024-01-10T12:13:49;29.27;;;13.32;;
11747;SDS011;5931;48.832;9.072;2024-01-10T12:16:15;29.20;;;13.50;;
11747;SDS011;5931;48.832;9.072;2024-01-10T12:18:41;31.23;;;14.98;;
11747;SDS011;5931;48.832;9.072;2024-01-10T12:21:07;31.38;;;14.65;;
11747;SDS011;5931;48.832;9.072;2024-01-10T12:23:37;23.40;;;13.10;;
11747;SDS011;5931;48.832;9.072;2024-01-10T12:26:10;28.63;;;14.05;;
11747;SDS011;5931;48.832;9.072;2024-01-10T12:28:38;22.80;;;13.32;;
11747;SDS011;5931;48.832;9.072;2024-01-10T12:31:04;27.38;;;13.40;;
11747;SDS011;5931;48.832;9.072;2024-01-10T12:33:33;29.33;;;13.38;;
11747;SDS011;5931;48.832;9.072;2024-01-10T12:36:17;32.78;;;13.45;;
11747;SDS011;5931;48.832;9.072;2024-01-10T12:38:45;31.63;;;14.27;;
11747;SDS011;5931;48.832;9.072;2024-01-10T12:41:11;32.00;;;14.82;;
11747;SDS011;5931;48.832;9.072;2024-01-10T12:43:39;26.85;;;13.10;;
11747;SDS011;5931;48.832;9.072;2024-01-10T12:46:08;27.17;;;13.05;;
11747;SDS011;5931;48.832;9.072;2024-01-10T12:48:36;23.35;;;10.93;;
11747;SDS011;5931;48.832;9.072;2024-01-10T12:51:03;21.95;;;11.23;;
11747;SDS011;5931;48.832;9.072;2024-01-10T12:53:37;26.90;;;13.55;;
11747;SDS011;5931;48.832;9.072;2024-01-10T12:56:04;27.73;;;14.25;;
11747;SDS011;5931;48.832;9.072;2024-01-10T12:58:31;28.05;;;13.95;;
11747;SDS011;5931;48.832;9.072;2024-01-10T13:00:58;30.38;;;13.13;;
11747;SDS011;5931;48.832;9.072;2024-01-10T13:03:24;27.43;;;13.30;;
11747;SDS011;5931;48.832;9.072;2024-01-10T13:05:50;31.80;;;14.20;;
11747;SDS011;5931;48.832;9.072;2024-01-10T13:08:17;30.02;;;13.93;;
11747;SDS011;5931;48.832;9.072;2024-01-10T13:10:44;35.40;;;15.13;;
11747;SDS011;5931;48.832;9.072;2024-01-10T13:13:11;32.50;;;15.27;;
11747;SDS011;5931;48.832;9.072;2024-01-10T13:15:37;27.10;;;14.10;;
11747;SDS011;5931;48.832;9.072;2024-01-10T13:18:04;25.38;;;12.50;;
11747;SDS011;5931;48.832;9.072;2024-01-10T13:20:29;27.03;;;14.27;;
11747;SDS011;5931;48.832;9.072;2024-01-10T13:22:55;29.47;;;15.67;;
11747;SDS011;5931;48.832;9.072;2024-01-10T13:25:22;34.43;;;14.60;;
11747;SDS011;5931;48.832;9.072;2024-01-10T13:27:51;30.55;;;14.68;;
11747;SDS011;5931;48.832;9.072;2024-01-10T13:30:18;29.33;;;13.90;;
11747;SDS011;5931;48.832;9.072;2024-01-10T13:32:44;26.42;;;13.20;;
11747;SDS011;5931;48.832;9.072;2024-01-10T13:35:12;26.27;;;12.43;;
11747;SDS011;5931;48.832;9.072;2024-01-10T13:37:39;32.88;;;13.82;;
11747;SDS011;5931;48.832;9.072;2024-01-10T13:40:06;34.03;;;14.10;;
11747;SDS011;5931;48.832;9.072;2024-01-10T13:42:38;30.70;;;15.10;;
11747;SDS011;5931;48.832;9.072;2024-01-10T13:45:05;34.25;;;14.88;;
11747;SDS011;5931;48.832;9.072;2024-01-10T13:47:31;32.05;;;14.52;;
11747;SDS011;5931;48.832;9.072;2024-01-10T13:50:00;29.33;;;14.23;;
11747;SDS011;5931;48.832;9.072;2024-01-10T13:52:28;29.95;;;14.48;;
11747;SDS011;5931;48.832;9.072;2024-01-10T13:54:54;27.10;;;13.50;;
11747;SDS011;5931;48.832;9.072;2024-01-10T13:57:21;30.02;;;14.73;;
11747;SDS011;5931;48.832;9.072;2024-01-10T13:59:47;24.53;;;14.17;;
11747;SDS011;5931;48.832;9.072;2024-01-10T14:02:13;28.40;;;13.93;;
11747;SDS011;5931;48.832;9.072;2024-01-10T14:04:39;26.50;;;13.68;;
11747;SDS011;5931;48.832;9.072;2024-01-10T14:07:05;27.75;;;13.75;;
11747;SDS011;5931;48.832;9.072;2024-01-10T14:09:31;30.10;;;13.70;;
11747;SDS011;5931;48.832;9.072;2024-01-10T14:11:57;27.13;;;12.27;;
11747;SDS011;5931;48.832;9.072;2024-01-10T14:14:22;34.53;;;13.10;;
11747;SDS011;5931;48.832;9.072;2024-01-10T14:16:48;26.20;;;15.03;;
11747;SDS011;5931;48.832;9.072;2024-01-10T14:19:15;22.10;;;11.63;;
11747;SDS011;5931;48.832;9.072;2024-01-10T14:21:44;27.65;;;13.57;;
11747;SDS011;5931;48.832;9.072;2024-01-10T14:24:13;26.40;;;12.18;;
11747;SDS011;5931;48.832;9.072;2024-01-10T14:26:39;29.60;;;13.30;;
11747;SDS011;5931;48.832;9.072;2024-01-10T14:29:05;22.83;;;12.10;;
11747;SDS011;5931;48.832;9.072;2024-01-10T14:31:31;24.70;;;12.13;;
11747;SDS011;5931;48.832;9.072;2024-01-10T14:33:57;25.90;;;12.57;;
11747;SDS011;5931;48.832;9.072;2024-01-10T14:36:23;24.30;;;12.77;;
11747;SDS011;5931;48.832;9.072;2024-01-10T14:38:49;30.67;;;14.97;;
11747;SDS011;5931;48.832;9.072;2024-01-10T14:41:16;35.35;;;15.38;;
11747;SDS011;5931;48.832;9.072;2024-01-10T14:43:41;34.53;;;15.00;;
11747;SDS011;5931;48.832;9.072;2024-01-10T14:46:08;30.37;;;14.17;;
11747;SDS011;5931;48.832;9.072;2024-01-10T14:48:35;30.33;;;14.68;;
11747;SDS011;5931;48.832;9.072;2024-01-10T14:51:01;26.00;;;14.53;;
11747;SDS011;5931;48.832;9.072;2024-01-10T14:53:27;24.30;;;14.10;;
11747;SDS011;5931;48.832;9.072;2024-01-10T14:55:53;34.73;;;14.27;;
11747;SDS011;5931;48.832;9.072;2024-01-10T14:58:19;26.37;;;13.60;;
11747;SDS011;5931;48.832;9.072;2024-01-10T15:00:45;33.83;;;15.57;;
11747;SDS011;5931;48.832;9.072;2024-01-10T15:03:12;31.02;;;13.40;;
11747;SDS011;5931;48.832;9.072;2024-01-10T15:05:39;31.70;;;15.77;;